Time;durP1;ratioP1;P1;durP2;ratioP2;P2;SDS_P1;SDS_P2;PMS_P1;PMS_P2;Temp;Humidity;BMP_temperature;BMP_pressure;BME280_temperature;BME280_humidity;BME280_pressure;Samples;Min_cycle;Max_cycle;Signal;HPM_P1;HPM_P2
2021/12/11 00:02:03;;;;;;;6.97;4.45;;;4.10;99.90;;;;;;5029355;28;20029;-84
2021/12/11 00:04:35;;;;;;;8.63;4.25;;;4.10;99.90;;;;;;5032439;28;20028;-86
2021/12/11 00:07:08;;;;;;;8.68;4.85;;;4.10;99.90;;;;;;5030089;28;20072;-84
2021/12/11 00:09:43;;;;;;;14.55;5.72;;;4.10;99.90;;;;;;5034604;28;20026;-87
2021/12/11 00:12:22;;;;;;;8.60;4.38;;;4.20;99.90;;;;;;5026736;28;20030;-84
2021/12/11 00:15:14;;;;;;;9.38;5.05;;;4.20;99.90;;;;;;5032253;28;20037;-86
2021/12/11 00:17:39;;;;;;;8.73;4.85;;;4.20;99.90;;;;;;5028237;28;20041;-87
2021/12/11 00:20:15;;;;;;;7.65;4.20;;;4.20;99.90;;;;;;5026700;28;20112;-81
2021/12/11 00:22:43;;;;;;;9.30;5.07;;;4.20;99.90;;;;;;5032941;28;20068;-84
2021/12/11 00:25:14;;;;;;;6.82;4.03;;;4.10;99.90;;;;;;5025292;28;20029;-88
2021/12/11 00:27:46;;;;;;;8.00;4.60;;;4.00;99.90;;;;;;5028567;28;20034;-83
2021/12/11 00:30:28;;;;;;;8.10;4.75;;;4.10;99.90;;;;;;5029442;28;20037;-85
2021/12/11 00:33:11;;;;;;;7.82;4.20;;;4.10;99.90;;;;;;5031850;28;20032;-86
2021/12/11 00:35:38;;;;;;;10.65;5.18;;;4.00;99.90;;;;;;5029176;28;20041;-87
2021/12/11 00:38:12;;;;;;;8.95;5.57;;;4.00;99.90;;;;;;5030339;28;20022;-82
2021/12/11 00:40:41;;;;;;;11.05;5.57;;;4.00;99.90;;;;;;5030041;28;20033;-87
2021/12/11 00:43:12;;;;;;;8.15;4.53;;;4.10;99.90;;;;;;5031939;28;20560;-86
2021/12/11 00:45:39;;;;;;;;;;;4.10;99.90;;;;;;5015470;28;20056;-82
2021/12/11 00:48:10;;;;;;;8.38;4.70;;;4.10;99.90;;;;;;5032159;28;19909;-86
2021/12/11 00:50:45;;;;;;;9.23;4.97;;;4.10;99.90;;;;;;5029688;28;20401;-81
2021/12/11 00:53:26;;;;;;;11.05;5.78;;;4.10;99.90;;;;;;5026355;28;20033;-85
2021/12/11 00:55:58;;;;;;;9.13;5.18;;;4.10;99.90;;;;;;5029485;28;20033;-84
2021/12/11 00:58:34;;;;;;;8.25;5.00;;;4.10;99.90;;;;;;5027408;28;20044;-80
2021/12/11 01:01:06;;;;;;;10.63;5.07;;;4.10;99.90;;;;;;5026963;28;20022;-82
2021/12/11 01:03:41;;;;;;;8.93;4.60;;;4.10;99.90;;;;;;5026179;28;20045;-84
2021/12/11 01:06:19;;;;;;;8.25;5.05;;;4.10;99.90;;;;;;5025085;28;20034;-81
2021/12/11 01:08:58;;;;;;;9.73;4.95;;;4.10;99.90;;;;;;5033128;28;20029;-82
2021/12/11 01:11:27;;;;;;;9.10;4.72;;;4.20;99.90;;;;;;5036963;28;20022;-81
2021/12/11 01:14:18;;;;;;;7.78;5.00;;;4.10;99.90;;;;;;5028484;28;20029;-84
2021/12/11 01:16:56;;;;;;;11.40;5.97;;;4.10;99.90;;;;;;5031121;28;20445;-81
2021/12/11 01:19:23;;;;;;;8.95;5.38;;;4.00;99.90;;;;;;5030821;28;20552;-82
2021/12/11 01:21:58;;;;;;;9.93;5.63;;;4.10;99.90;;;;;;5032263;28;20017;-83
2021/12/11 01:24:31;;;;;;;8.80;5.38;;;4.10;99.90;;;;;;5027332;28;20052;-83
2021/12/11 01:27:01;;;;;;;12.38;6.63;;;4.10;99.90;;;;;;5034996;28;20033;-82
2021/12/11 01:29:29;;;;;;;11.38;6.28;;;3.70;99.90;;;;;;5029956;28;20044;-82
2021/12/11 01:31:56;;;;;;;10.63;6.40;;;4.00;99.90;;;;;;5031102;28;20125;-84
2021/12/11 01:34:25;;;;;;;11.57;6.00;;;4.10;99.90;;;;;;5032505;28;20069;-85
2021/12/11 01:36:53;;;;;;;9.00;5.25;;;4.20;99.90;;;;;;5030384;28;20057;-83
2021/12/11 01:39:26;;;;;;;9.63;5.45;;;4.20;99.90;;;;;;5027122;28;20029;-84
2021/12/11 01:41:54;;;;;;;9.98;5.43;;;4.30;99.90;;;;;;5032780;28;20052;-83
2021/12/11 01:44:29;;;;;;;8.82;5.53;;;4.10;99.90;;;;;;5029739;28;20048;-85
2021/12/11 01:47:11;;;;;;;11.23;5.75;;;4.00;99.90;;;;;;5028227;28;20030;-81
2021/12/11 01:49:43;;;;;;;8.60;5.45;;;4.00;99.90;;;;;;5033549;28;20041;-87
2021/12/11 01:52:13;;;;;;;11.32;6.47;;;4.10;99.90;;;;;;5031290;28;20037;-80
2021/12/11 01:54:46;;;;;;;9.57;5.50;;;4.00;99.90;;;;;;5028432;28;20041;-86
2021/12/11 01:57:22;;;;;;;9.63;5.57;;;4.00;99.90;;;;;;5013796;28;20114;-86
2021/12/11 01:59:56;;;;;;;8.13;5.18;;;4.00;99.90;;;;;;5030868;28;20051;-84
2021/12/11 02:02:41;;;;;;;9.15;5.53;;;3.90;99.90;;;;;;5029902;28;20029;-85
2021/12/11 02:05:09;;;;;;;12.02;6.75;;;5.90;99.90;;;;;;5025588;28;20029;-84
2021/12/11 02:07:45;;;;;;;10.02;6.05;;;4.00;99.90;;;;;;5028421;28;20033;-81
2021/12/11 02:10:47;;;;;;;8.65;5.43;;;4.00;99.90;;;;;;5031095;28;20060;-84
2021/12/11 02:13:28;;;;;;;8.80;5.47;;;4.00;99.90;;;;;;5018110;28;20033;-81
2021/12/11 02:15:54;;;;;;;9.85;5.70;;;4.00;99.90;;;;;;5030010;28;20560;-86
2021/12/11 02:18:33;;;;;;;9.25;5.88;;;3.90;99.90;;;;;;5031813;28;20476;-84
2021/12/11 02:21:05;;;;;;;8.57;5.65;;;3.90;99.90;;;;;;5028495;28;20049;-87
2021/12/11 02:23:31;;;;;;;10.48;5.53;;;3.90;99.90;;;;;;5044431;28;20033;-84
2021/12/11 02:26:04;;;;;;;8.77;5.45;;;3.90;99.90;;;;;;5030177;28;20029;-83
2021/12/11 02:28:37;;;;;;;8.63;6.22;;;3.90;99.90;;;;;;5029815;28;20027;-82
2021/12/11 02:31:16;;;;;;;9.13;6.28;;;3.90;99.90;;;;;;5027453;28;20029;-82
2021/12/11 02:34:07;;;;;;;8.45;5.70;;;3.90;99.90;;;;;;5029813;28;20037;-81
2021/12/11 02:36:48;;;;;;;7.90;5.82;;;3.90;99.90;;;;;;5030764;28;20052;-81
2021/12/11 02:39:53;;;;;;;9.60;6.63;;;3.90;99.90;;;;;;5028435;28;20037;-84
2021/12/11 02:42:34;;;;;;;9.45;6.90;;;3.90;99.90;;;;;;4997089;28;20397;-84
2021/12/11 02:45:20;;;;;;;11.70;7.68;;;4.00;99.90;;;;;;5031726;28;20067;-85
2021/12/11 02:47:53;;;;;;;9.73;6.75;;;4.00;99.90;;;;;;5030161;28;20090;-79
2021/12/11 02:50:32;;;;;;;8.95;6.60;;;4.10;99.90;;;;;;5029398;28;20026;-85
2021/12/11 02:53:07;;;;;;;9.13;6.45;;;4.00;99.90;;;;;;5026445;28;20049;-83
2021/12/11 02:55:41;;;;;;;8.30;5.95;;;4.10;99.90;;;;;;5046138;28;20037;-82
2021/12/11 02:58:17;;;;;;;8.82;6.40;;;4.00;99.90;;;;;;5028151;28;20025;-82
2021/12/11 03:00:51;;;;;;;10.00;6.85;;;4.10;99.90;;;;;;5030202;28;20141;-82
2021/12/11 03:03:22;;;;;;;9.10;6.38;;;4.20;99.90;;;;;;5035886;28;20032;-79
2021/12/11 03:06:02;;;;;;;8.15;5.70;;;4.10;99.90;;;;;;5038883;28;20080;-82
2021/12/11 03:08:29;;;;;;;8.32;6.18;;;4.10;99.90;;;;;;5037025;28;20057;-83
2021/12/11 03:10:58;;;;;;;8.30;6.28;;;4.00;99.90;;;;;;5016848;28;20064;-83
2021/12/11 03:13:29;;;;;;;9.23;6.45;;;4.00;99.90;;;;;;5029153;28;20513;-88
2021/12/11 03:15:55;;;;;;;7.93;6.55;;;4.00;99.90;;;;;;5025883;28;20038;-81
2021/12/11 03:18:22;;;;;;;9.38;6.20;;;4.00;99.90;;;;;;5024080;28;20044;-86
2021/12/11 03:20:50;;;;;;;10.30;6.97;;;4.00;99.90;;;;;;5026421;28;20413;-87
2021/12/11 03:23:16;;;;;;;8.52;5.90;;;4.00;99.90;;;;;;5027724;28;20044;-85
2021/12/11 03:25:43;;;;;;;8.75;6.18;;;4.00;99.90;;;;;;5030134;28;20399;-82
2021/12/11 03:28:10;;;;;;;9.45;6.65;;;4.10;99.90;;;;;;5030879;28;20034;-83
2021/12/11 03:30:43;;;;;;;9.40;6.10;;;4.00;99.90;;;;;;5030044;28;20113;-81
2021/12/11 03:33:14;;;;;;;11.23;6.82;;;4.10;99.90;;;;;;5028996;28;20029;-81
2021/12/11 03:35:41;;;;;;;8.20;5.88;;;4.00;99.90;;;;;;5029888;28;20025;-84
2021/12/11 03:38:09;;;;;;;10.55;6.70;;;4.00;99.90;;;;;;5025460;28;20038;-86
2021/12/11 03:40:35;;;;;;;10.98;7.45;;;4.00;99.90;;;;;;5027249;28;20390;-83
2021/12/11 03:43:03;;;;;;;8.70;6.28;;;3.90;99.90;;;;;;5029901;28;20036;-82
2021/12/11 03:45:34;;;;;;;9.68;6.72;;;4.00;99.90;;;;;;5023943;28;20381;-82
2021/12/11 03:48:26;;;;;;;9.80;7.30;;;3.90;99.90;;;;;;5031986;28;20017;-84
2021/12/11 03:50:53;;;;;;;9.07;6.72;;;4.00;99.90;;;;;;5030166;28;20037;-84
2021/12/11 03:53:20;;;;;;;9.30;6.50;;;4.00;99.90;;;;;;5031785;28;20033;-83
2021/12/11 03:55:51;;;;;;;9.35;6.78;;;4.00;99.90;;;;;;5024655;28;20033;-82
2021/12/11 03:58:21;;;;;;;8.82;6.85;;;4.00;99.90;;;;;;5046999;28;20030;-81
2021/12/11 04:00:57;;;;;;;11.87;6.57;;;4.00;99.90;;;;;;5035934;28;20037;-80
2021/12/11 04:03:29;;;;;;;9.00;6.25;;;4.00;99.90;;;;;;5031469;28;20030;-86
2021/12/11 04:05:57;;;;;;;9.60;6.65;;;4.00;99.90;;;;;;5031230;28;20052;-84
2021/12/11 04:08:28;;;;;;;9.90;6.35;;;4.00;99.90;;;;;;5033655;28;20056;-82
2021/12/11 04:10:55;;;;;;;10.23;6.68;;;4.00;99.90;;;;;;5031958;28;20080;-83
2021/12/11 04:13:22;;;;;;;8.73;5.97;;;5.20;99.90;;;;;;5032655;28;20157;-81
2021/12/11 04:15:51;;;;;;;9.52;6.55;;;4.00;99.90;;;;;;5031472;28;20037;-80
2021/12/11 04:18:18;;;;;;;9.10;6.03;;;4.00;99.90;;;;;;5031546;28;20061;-84
2021/12/11 04:20:46;;;;;;;9.13;6.45;;;5.70;99.90;;;;;;5029183;28;20049;-82
2021/12/11 04:23:14;;;;;;;9.95;6.82;;;4.10;99.90;;;;;;5030226;28;20461;-82
2021/12/11 04:25:47;;;;;;;9.15;6.63;;;4.10;99.90;;;;;;5034750;28;20029;-81
2021/12/11 04:28:16;;;;;;;11.10;7.25;;;4.00;99.90;;;;;;5048333;28;20025;-84
2021/12/11 04:30:42;;;;;;;10.93;7.13;;;4.00;99.90;;;;;;5030043;28;20033;-84
2021/12/11 04:33:09;;;;;;;11.57;6.85;;;4.10;99.90;;;;;;5032064;28;20029;-84
2021/12/11 04:35:36;;;;;;;9.25;6.35;;;4.00;99.90;;;;;;5032180;28;20045;-86
2021/12/11 04:38:07;;;;;;;10.27;6.45;;;4.00;99.90;;;;;;5013671;28;20053;-81
2021/12/11 04:40:37;;;;;;;9.95;6.50;;;4.40;99.90;;;;;;5031060;28;20124;-81
2021/12/11 04:43:14;;;;;;;8.38;6.18;;;4.10;99.90;;;;;;5032291;28;20030;-81
2021/12/11 04:45:56;;;;;;;8.85;6.43;;;4.10;99.90;;;;;;5030838;28;20413;-83
2021/12/11 04:51:07;;;;;;;12.65;6.80;;;4.10;99.90;;;;;;5031212;28;20426;-86
2021/12/11 04:53:46;;;;;;;9.30;6.03;;;4.10;99.90;;;;;;5030087;28;20037;-83
2021/12/11 05:04:57;;;;;;;8.95;6.15;;;4.00;99.90;;;;;;5027924;28;20087;-83
2021/12/11 05:07:32;;;;;;;9.27;6.32;;;4.20;99.90;;;;;;5032540;28;20210;-81
2021/12/11 05:10:13;;;;;;;11.05;6.68;;;4.20;99.90;;;;;;5028754;28;20167;-81
2021/12/11 05:12:40;;;;;;;10.77;6.65;;;4.20;99.90;;;;;;5031716;28;20029;-86
2021/12/11 05:15:28;;;;;;;10.60;6.88;;;4.20;99.90;;;;;;5025887;28;20632;-83
2021/12/11 05:17:56;;;;;;;10.38;6.57;;;4.20;99.90;;;;;;5024854;28;20386;-81
2021/12/11 05:20:26;;;;;;;11.57;7.35;;;4.10;99.90;;;;;;5026768;28;20126;-82
2021/12/11 05:22:53;;;;;;;10.90;6.88;;;4.10;99.90;;;;;;5023915;28;20563;-82
2021/12/11 05:25:19;;;;;;;10.43;7.20;;;4.10;99.90;;;;;;5021300;28;20032;-84
2021/12/11 05:27:46;;;;;;;12.82;7.05;;;4.10;99.90;;;;;;5028022;28;20032;-85
2021/12/11 05:30:22;;;;;;;12.30;7.07;;;4.10;99.90;;;;;;5042922;28;20061;-84
2021/12/11 05:32:49;;;;;;;11.65;6.95;;;4.10;99.90;;;;;;5030585;28;20136;-86
2021/12/11 05:35:16;;;;;;;12.25;7.55;;;6.20;99.90;;;;;;5026910;28;20470;-84
2021/12/11 05:37:43;;;;;;;11.85;7.43;;;5.10;99.90;;;;;;5028847;28;20637;-80
2021/12/11 05:40:13;;;;;;;11.45;7.00;;;4.00;99.90;;;;;;5029479;28;20042;-84
2021/12/11 05:42:39;;;;;;;14.00;8.60;;;4.10;99.90;;;;;;5031835;28;20064;-82
2021/12/11 05:45:06;;;;;;;11.57;7.40;;;4.10;99.90;;;;;;5013712;28;20033;-80
2021/12/11 05:47:33;;;;;;;12.93;7.93;;;4.10;99.90;;;;;;5024065;28;20521;-82
2021/12/11 05:49:59;;;;;;;12.00;7.60;;;4.00;99.90;;;;;;5043371;28;20155;-81
2021/12/11 05:52:26;;;;;;;10.48;7.03;;;4.10;99.90;;;;;;5027385;28;20045;-83
2021/12/11 05:54:53;;;;;;;12.60;7.53;;;4.10;99.90;;;;;;5025505;28;20095;-88
2021/12/11 05:57:21;;;;;;;11.60;7.43;;;4.10;99.90;;;;;;5026787;28;20071;-87
2021/12/11 05:59:49;;;;;;;13.10;8.10;;;4.20;99.90;;;;;;5028561;28;20025;-83
2021/12/11 06:02:20;;;;;;;11.95;7.05;;;4.20;99.90;;;;;;5018525;28;20022;-87
2021/12/11 06:04:51;;;;;;;12.18;8.18;;;4.10;99.90;;;;;;5027198;28;20029;-85
2021/12/11 06:07:19;;;;;;;12.52;7.95;;;4.10;99.90;;;;;;5024303;28;20028;-84
2021/12/11 06:09:49;;;;;;;12.57;7.97;;;4.00;99.90;;;;;;5028310;28;20034;-87
2021/12/11 06:12:18;;;;;;;12.00;7.43;;;4.00;99.90;;;;;;5028923;28;20026;-86
2021/12/11 06:14:46;;;;;;;12.65;7.63;;;4.00;99.90;;;;;;5025183;28;20136;-81
2021/12/11 06:17:15;;;;;;;12.60;8.07;;;3.90;99.90;;;;;;5021818;28;20035;-87
2021/12/11 06:19:48;;;;;;;12.00;7.88;;;3.90;99.90;;;;;;5025940;28;20093;-87
2021/12/11 06:22:15;;;;;;;10.80;7.03;;;4.00;99.90;;;;;;5025603;28;20041;-81
2021/12/11 06:24:41;;;;;;;10.45;6.68;;;3.90;99.90;;;;;;5044182;28;20024;-83
2021/12/11 06:27:08;;;;;;;13.18;7.47;;;4.00;99.90;;;;;;5028711;28;20467;-84
2021/12/11 06:29:34;;;;;;;11.10;7.03;;;4.00;99.90;;;;;;5030414;28;20040;-82
2021/12/11 06:32:00;;;;;;;12.27;7.20;;;4.00;99.90;;;;;;5025513;28;20022;-82
2021/12/11 06:34:26;;;;;;;10.45;7.38;;;4.00;99.90;;;;;;5029711;28;20077;-81
2021/12/11 06:36:53;;;;;;;13.60;7.93;;;4.00;99.90;;;;;;5029268;28;20026;-83
2021/12/11 06:39:23;;;;;;;16.38;8.93;;;4.00;99.90;;;;;;5028128;28;20947;-81
2021/12/11 06:41:54;;;;;;;13.05;8.15;;;4.00;99.90;;;;;;5027486;28;20521;-84
2021/12/11 06:44:27;;;;;;;14.55;8.02;;;3.90;99.90;;;;;;5028888;28;20133;-84
2021/12/11 06:46:58;;;;;;;12.13;7.90;;;3.90;99.90;;;;;;5029932;28;20390;-83
2021/12/11 06:49:29;;;;;;;15.63;9.00;;;3.90;99.90;;;;;;5014249;28;20131;-84
2021/12/11 06:51:56;;;;;;;13.75;8.02;;;3.90;99.90;;;;;;5029849;28;20034;-81
2021/12/11 06:54:25;;;;;;;14.98;8.10;;;3.90;99.90;;;;;;5029797;28;20447;-82
2021/12/11 06:56:52;;;;;;;14.23;7.80;;;3.90;99.90;;;;;;5032803;28;20055;-83
2021/12/11 06:59:19;;;;;;;14.05;8.55;;;3.70;99.90;;;;;;5016230;28;20040;-87
2021/12/11 07:01:45;;;;;;;14.48;8.95;;;3.90;99.90;;;;;;5030830;28;20033;-85
2021/12/11 07:04:11;;;;;;;15.52;8.48;;;3.90;99.90;;;;;;5028950;28;20048;-86
2021/12/11 07:06:41;;;;;;;14.00;8.88;;;3.90;99.90;;;;;;5033558;28;20125;-87
2021/12/11 07:09:11;;;;;;;16.40;8.77;;;4.00;99.90;;;;;;5034250;28;20029;-79
2021/12/11 07:11:40;;;;;;;14.63;8.68;;;3.80;99.90;;;;;;5032907;28;20437;-87
2021/12/11 07:14:07;;;;;;;14.10;8.18;;;3.90;99.90;;;;;;5032733;28;20029;-82
2021/12/11 07:16:35;;;;;;;15.88;8.90;;;5.20;99.90;;;;;;5026390;28;20032;-84
2021/12/11 07:19:02;;;;;;;18.10;9.13;;;3.90;99.90;;;;;;5025785;28;20021;-84
2021/12/11 07:21:28;;;;;;;12.52;8.25;;;3.70;99.90;;;;;;5030786;28;20026;-84
2021/12/11 07:23:54;;;;;;;14.50;7.82;;;3.90;99.90;;;;;;5022208;28;20026;-83
2021/12/11 07:26:28;;;;;;;13.32;8.45;;;3.90;99.90;;;;;;5032146;28;20539;-85
2021/12/11 07:28:56;;;;;;;17.42;9.52;;;3.90;99.90;;;;;;5028201;28;20148;-80
2021/12/11 07:31:24;;;;;;;16.77;8.73;;;4.80;99.90;;;;;;5017897;28;20056;-81
2021/12/11 07:33:51;;;;;;;14.80;8.35;;;3.90;99.90;;;;;;5022279;28;20041;-83
2021/12/11 07:36:18;;;;;;;15.85;8.30;;;3.80;99.90;;;;;;5028679;28;20573;-79
2021/12/11 07:38:44;;;;;;;14.00;8.45;;;3.90;99.90;;;;;;5019371;28;20026;-81
2021/12/11 07:41:12;;;;;;;23.75;10.02;;;3.80;99.90;;;;;;5026759;28;20038;-80
2021/12/11 07:43:40;;;;;;;15.27;9.25;;;3.80;99.90;;;;;;5020226;28;20521;-81
2021/12/11 07:46:13;;;;;;;13.88;8.85;;;3.80;99.90;;;;;;5016088;28;20030;-83
2021/12/11 07:48:40;;;;;;;15.02;9.30;;;3.80;99.90;;;;;;5029668;28;20030;-85
2021/12/11 07:51:07;;;;;;;13.57;8.32;;;4.60;99.90;;;;;;5027112;28;20564;-80
2021/12/11 07:53:33;;;;;;;14.57;8.85;;;3.80;99.90;;;;;;5028973;28;20033;-83
2021/12/11 07:56:00;;;;;;;12.57;8.68;;;3.80;99.90;;;;;;5024476;28;20033;-85
2021/12/11 07:58:29;;;;;;;15.13;9.27;;;3.90;99.90;;;;;;5027654;28;20029;-85
2021/12/11 08:00:55;;;;;;;12.75;8.35;;;3.90;99.90;;;;;;5027306;28;20045;-88
2021/12/11 08:03:22;;;;;;;13.40;8.25;;;3.70;99.90;;;;;;5027486;28;20065;-81
2021/12/11 08:05:50;;;;;;;13.20;8.48;;;3.90;99.90;;;;;;5034002;28;20025;-86
2021/12/11 08:08:17;;;;;;;13.95;8.77;;;3.90;99.90;;;;;;5027896;28;20029;-82
2021/12/11 08:10:47;;;;;;;14.80;8.73;;;3.90;99.90;;;;;;5033393;28;20079;-81
2021/12/11 08:13:14;;;;;;;19.38;11.52;;;3.80;99.90;;;;;;5031354;28;20109;-84
2021/12/11 08:15:41;;;;;;;15.10;9.13;;;3.90;99.90;;;;;;5027574;28;20037;-81
2021/12/11 08:18:08;;;;;;;13.25;8.70;;;4.00;99.90;;;;;;5029815;28;20493;-80
2021/12/11 08:20:36;;;;;;;16.27;11.07;;;4.00;99.90;;;;;;5026889;28;20034;-83
2021/12/11 08:23:03;;;;;;;13.57;9.05;;;3.90;99.90;;;;;;5020206;28;20025;-83
2021/12/11 08:25:32;;;;;;;11.88;8.05;;;4.00;99.90;;;;;;5018016;28;20084;-84
2021/12/11 08:27:59;;;;;;;12.48;8.35;;;4.00;99.90;;;;;;5017027;28;20026;-84
2021/12/11 08:30:29;;;;;;;12.25;8.38;;;4.00;99.90;;;;;;5031106;28;20654;-81
2021/12/11 08:32:55;;;;;;;12.95;8.18;;;4.00;99.90;;;;;;5030134;28;20116;-82
2021/12/11 08:35:22;;;;;;;13.50;9.13;;;4.00;99.90;;;;;;5025963;28;21439;-81
2021/12/11 08:37:50;;;;;;;14.32;9.07;;;4.00;99.90;;;;;;5019452;28;20052;-83
2021/12/11 08:40:25;;;;;;;13.20;8.60;;;3.90;99.90;;;;;;5017136;28;20086;-85
2021/12/11 08:42:52;;;;;;;12.40;8.23;;;4.00;99.90;;;;;;5023234;28;20029;-84
2021/12/11 08:45:24;;;;;;;15.50;8.95;;;4.00;99.90;;;;;;5022278;28;20481;-83
2021/12/11 08:47:58;;;;;;;14.05;8.57;;;3.90;99.90;;;;;;5025751;28;20025;-81
2021/12/11 08:50:27;;;;;;;14.82;8.55;;;3.90;99.90;;;;;;5026293;28;20022;-82
2021/12/11 08:52:55;;;;;;;15.75;10.25;;;3.90;99.90;;;;;;5025090;28;20093;-83
2021/12/11 08:55:28;;;;;;;14.88;10.10;;;3.90;99.90;;;;;;5025252;28;20051;-85
2021/12/11 08:57:56;;;;;;;13.05;8.73;;;5.90;99.90;;;;;;5030349;28;20490;-85
2021/12/11 09:00:28;;;;;;;14.32;9.70;;;4.00;99.90;;;;;;5029627;28;20037;-83
2021/12/11 09:03:07;;;;;;;14.45;9.40;;;4.00;99.90;;;;;;5019371;28;20041;-84
2021/12/11 09:05:45;;;;;;;13.95;9.38;;;4.10;99.90;;;;;;5026720;28;20034;-82
2021/12/11 09:08:23;;;;;;;13.90;9.05;;;4.10;99.90;;;;;;5013723;28;20029;-82
2021/12/11 09:11:00;;;;;;;13.75;8.98;;;4.20;99.90;;;;;;5032682;28;20037;-83
2021/12/11 09:14:09;;;;;;;14.80;8.73;;;4.20;99.90;;;;;;5028021;28;20060;-83
2021/12/11 09:16:55;;;;;;;15.27;8.32;;;4.30;99.90;;;;;;5014925;28;20041;-82
2021/12/11 09:19:35;;;;;;;13.77;9.20;;;4.30;99.90;;;;;;5027403;28;20029;-82
2021/12/11 09:22:14;;;;;;;12.35;7.95;;;4.30;99.90;;;;;;5023332;28;20033;-80
2021/12/11 09:24:44;;;;;;;13.68;8.90;;;4.30;99.90;;;;;;5023750;28;20049;-80
2021/12/11 09:27:12;;;;;;;11.75;8.00;;;4.40;99.90;;;;;;5019764;28;20091;-81
2021/12/11 09:29:49;;;;;;;13.38;8.55;;;4.40;99.90;;;;;;5019901;28;20125;-80
2021/12/11 09:32:34;;;;;;;14.90;8.45;;;4.50;99.90;;;;;;5023609;28;20540;-82
2021/12/11 09:35:11;;;;;;;12.57;8.15;;;4.50;99.90;;;;;;5022760;28;20133;-81
2021/12/11 09:37:39;;;;;;;14.10;8.65;;;4.60;99.90;;;;;;5014893;28;20084;-80
2021/12/11 09:40:30;;;;;;;14.75;9.35;;;4.50;99.90;;;;;;5022516;28;20030;-83
2021/12/11 09:42:55;;;;;;;;;;;4.40;99.90;;;;;;5008743;28;20037;-82
2021/12/11 09:45:26;;;;;;;12.98;7.72;;;4.40;99.90;;;;;;5015358;28;20016;-81
2021/12/11 09:48:05;;;;;;;16.08;8.30;;;4.40;99.90;;;;;;5019042;28;20022;-83
2021/12/11 09:50:44;;;;;;;12.18;8.43;;;4.50;99.90;;;;;;5028921;28;20104;-84
2021/12/11 09:53:12;;;;;;;14.20;8.98;;;4.50;99.90;;;;;;5022576;28;20059;-85
2021/12/11 09:55:39;;;;;;;14.23;8.88;;;4.50;99.90;;;;;;5013799;28;20037;-83
2021/12/11 09:58:09;;;;;;;15.65;9.45;;;4.60;99.90;;;;;;5017848;28;20033;-81
2021/12/11 10:00:46;;;;;;;13.70;8.55;;;4.50;99.90;;;;;;5020229;28;20036;-82
2021/12/11 10:03:15;;;;;;;13.10;8.02;;;4.40;99.90;;;;;;5029265;28;20291;-85
2021/12/11 10:05:55;;;;;;;13.88;8.90;;;4.40;99.90;;;;;;5015779;28;20036;-85
2021/12/11 10:08:39;;;;;;;14.60;8.88;;;4.30;99.90;;;;;;5019001;28;20624;-81
2021/12/11 10:11:11;;;;;;;12.80;8.65;;;4.30;99.90;;;;;;5017838;28;20025;-85
2021/12/11 10:13:45;;;;;;;15.55;9.50;;;4.40;99.90;;;;;;5035982;28;20034;-81
2021/12/11 10:16:12;;;;;;;11.98;8.48;;;4.40;99.90;;;;;;5025955;28;20044;-86
2021/12/11 10:18:39;;;;;;;14.05;9.57;;;4.40;99.90;;;;;;5024405;28;20053;-83
2021/12/11 10:21:15;;;;;;;24.35;13.63;;;4.40;99.90;;;;;;5026682;28;20084;-83
2021/12/11 10:23:46;;;;;;;16.92;10.95;;;4.30;99.90;;;;;;5028050;28;20026;-82
2021/12/11 10:26:16;;;;;;;14.05;9.10;;;4.40;99.90;;;;;;5045401;28;20552;-81
2021/12/11 10:28:46;;;;;;;15.85;10.02;;;4.40;99.90;;;;;;5025537;28;20030;-87
2021/12/11 10:31:17;;;;;;;14.02;9.55;;;4.40;99.90;;;;;;5033466;28;20026;-84
2021/12/11 10:36:17;;;;;;;14.20;9.38;;;4.50;99.90;;;;;;5079496;28;20043;-84
2021/12/11 10:38:45;;;;;;;15.98;11.15;;;4.60;99.90;;;;;;5079623;28;20078;-84
2021/12/11 10:41:13;;;;;;;15.27;9.95;;;4.60;99.90;;;;;;5067983;28;20036;-85
2021/12/11 10:43:53;;;;;;;14.98;9.57;;;4.70;99.90;;;;;;5086874;28;20025;-85
2021/12/11 10:46:23;;;;;;;14.60;9.32;;;4.60;99.90;;;;;;5087938;28;20052;-83
2021/12/11 10:48:50;;;;;;;17.10;11.18;;;4.70;99.90;;;;;;5072497;28;20051;-84
2021/12/11 10:51:18;;;;;;;19.35;10.82;;;4.60;99.90;;;;;;5076038;28;20054;-84
2021/12/11 10:53:47;;;;;;;17.42;10.15;;;4.70;99.90;;;;;;5074738;28;20028;-85
2021/12/11 10:56:18;;;;;;;15.40;9.48;;;4.80;99.90;;;;;;5070449;28;20024;-81
2021/12/11 10:58:53;;;;;;;18.25;10.85;;;4.90;99.90;;;;;;5067436;28;20059;-87
2021/12/11 11:01:48;;;;;;;15.48;9.77;;;4.90;99.90;;;;;;5097066;28;20035;-89
2021/12/11 11:04:26;;;;;;;16.20;8.98;;;5.10;99.90;;;;;;5087810;28;20066;-86
2021/12/11 11:06:56;;;;;;;15.75;9.50;;;5.10;99.90;;;;;;5080433;28;20024;-85
2021/12/11 11:09:24;;;;;;;16.45;10.82;;;5.10;99.90;;;;;;5073605;28;20021;-81
2021/12/11 11:11:56;;;;;;;14.20;9.10;;;5.00;99.90;;;;;;5063364;28;20059;-85
2021/12/11 11:14:24;;;;;;;14.77;8.70;;;5.10;99.90;;;;;;5088159;28;20023;-85
2021/12/11 11:16:59;;;;;;;15.88;8.82;;;5.10;99.90;;;;;;5084416;28;20024;-85
2021/12/11 11:19:28;;;;;;;14.90;8.98;;;5.00;99.90;;;;;;5080791;28;20021;-84
2021/12/11 11:22:00;;;;;;;16.88;9.95;;;5.00;99.90;;;;;;5079430;28;20052;-86
2021/12/11 11:24:30;;;;;;;14.43;9.68;;;4.90;99.90;;;;;;5097129;28;20024;-85
2021/12/11 11:26:57;;;;;;;15.32;9.95;;;5.00;99.90;;;;;;5084708;28;20021;-82
2021/12/11 11:29:27;;;;;;;16.05;10.05;;;5.00;99.90;;;;;;5090600;28;20055;-84
2021/12/11 11:32:00;;;;;;;21.70;12.53;;;4.90;99.90;;;;;;5078612;28;20024;-82
2021/12/11 11:34:31;;;;;;;16.75;10.70;;;4.90;99.90;;;;;;5076756;28;20088;-84
2021/12/11 11:37:02;;;;;;;17.83;11.20;;;5.10;99.90;;;;;;5086478;28;20028;-84
2021/12/11 11:39:29;;;;;;;16.10;11.10;;;5.00;99.90;;;;;;5086200;28;20068;-83
2021/12/11 11:42:04;;;;;;;17.75;11.30;;;5.00;99.90;;;;;;5095364;28;20143;-84
2021/12/11 11:44:31;;;;;;;15.05;9.63;;;5.00;99.90;;;;;;5082230;28;20029;-87
2021/12/11 11:47:01;;;;;;;17.35;10.32;;;5.00;99.90;;;;;;5081460;28;20048;-85
2021/12/11 11:49:29;;;;;;;13.65;8.85;;;5.10;99.90;;;;;;5069386;28;20044;-84
2021/12/11 11:52:05;;;;;;;15.75;9.68;;;5.10;99.90;;;;;;5082717;28;20029;-86
2021/12/11 11:54:32;;;;;;;15.15;8.98;;;5.10;99.90;;;;;;5073366;28;20029;-86
2021/12/11 11:57:09;;;;;;;20.05;10.32;;;5.10;99.90;;;;;;5080076;28;20029;-87
2021/12/11 11:59:35;;;;;;;14.70;9.00;;;;;;;;;;5070936;28;20100;-84
2021/12/11 12:02:05;;;;;;;13.07;8.27;;;5.10;99.90;;;;;;5092988;28;20039;-81
2021/12/11 12:04:34;;;;;;;14.98;9.20;;;5.10;99.90;;;;;;5075733;28;20021;-87
2021/12/11 12:07:05;;;;;;;13.05;8.10;;;;;;;;;;5072085;28;20060;-84
2021/12/11 12:09:37;;;;;;;13.27;8.23;;;5.10;99.90;;;;;;5079706;28;20028;-83
2021/12/11 12:12:09;;;;;;;14.02;7.90;;;5.20;99.90;;;;;;5061531;28;20108;-85
2021/12/11 12:14:37;;;;;;;10.48;7.00;;;5.20;99.90;;;;;;5060403;28;20050;-83
2021/12/11 12:17:05;;;;;;;12.88;7.57;;;5.10;99.90;;;;;;5070478;28;20091;-82
2021/12/11 12:19:32;;;;;;;12.20;6.78;;;5.00;99.90;;;;;;5077428;28;20039;-81
2021/12/11 12:22:03;;;;;;;10.40;6.70;;;5.10;99.90;;;;;;5079648;28;20507;-82
2021/12/11 12:24:31;;;;;;;13.52;7.65;;;5.70;99.90;;;;;;5075117;28;20016;-81
2021/12/11 12:27:02;;;;;;;12.68;7.72;;;5.10;99.90;;;;;;5077471;28;20020;-83
2021/12/11 12:29:29;;;;;;;11.77;6.55;;;5.20;99.90;;;;;;5078508;28;20031;-82
2021/12/11 12:31:59;;;;;;;10.68;6.65;;;5.20;99.90;;;;;;5079946;28;20033;-83
2021/12/11 12:34:27;;;;;;;11.70;6.30;;;5.90;99.90;;;;;;5080261;28;20032;-84
2021/12/11 12:36:53;;;;;;;11.38;7.43;;;5.20;99.90;;;;;;5075249;28;20028;-85
2021/12/11 12:39:25;;;;;;;10.10;6.53;;;6.50;99.90;;;;;;5072129;28;20121;-83
2021/12/11 12:42:03;;;;;;;15.80;6.57;;;5.30;99.90;;;;;;5081199;28;20024;-83
2021/12/11 12:44:29;;;;;;;11.10;7.00;;;5.30;99.90;;;;;;5071948;28;20028;-85
2021/12/11 12:46:56;;;;;;;11.52;6.85;;;;;;;;;;5071699;28;20488;-84
2021/12/11 12:49:27;;;;;;;12.10;7.43;;;5.20;99.90;;;;;;5078602;28;20067;-84
2021/12/11 12:51:57;;;;;;;13.48;8.02;;;5.00;99.90;;;;;;5058517;28;20442;-85
2021/12/11 12:54:24;;;;;;;12.40;7.25;;;6.10;99.90;;;;;;5076817;28;20077;-82
2021/12/11 12:57:11;;;;;;;16.58;9.02;;;6.50;99.90;;;;;;5074687;28;20025;-86
2021/12/11 12:59:40;;;;;;;12.55;7.32;;;5.30;99.90;;;;;;5076629;28;20040;-82
2021/12/11 13:02:11;;;;;;;13.57;6.57;;;5.30;99.90;;;;;;5080280;28;20370;-85
2021/12/11 13:04:45;;;;;;;14.90;7.60;;;5.30;99.90;;;;;;5078667;28;20024;-83
2021/12/11 13:07:14;;;;;;;14.65;7.53;;;5.40;99.90;;;;;;5079345;28;20259;-82
2021/12/11 13:09:51;;;;;;;13.63;7.40;;;5.40;99.90;;;;;;5068115;28;20052;-85
2021/12/11 13:12:39;;;;;;;13.48;7.78;;;5.30;99.90;;;;;;5077246;28;20032;-86
2021/12/11 13:15:21;;;;;;;14.90;8.52;;;5.30;99.90;;;;;;5076306;28;20095;-81
2021/12/11 13:17:50;;;;;;;15.70;8.32;;;5.30;99.90;;;;;;5067449;28;20033;-85
2021/12/11 13:20:28;;;;;;;14.43;7.95;;;6.60;99.90;;;;;;5074247;28;20481;-83
2021/12/11 13:22:55;;;;;;;16.65;8.65;;;5.40;99.90;;;;;;5082701;28;20031;-82
2021/12/11 13:25:26;;;;;;;18.92;9.07;;;5.40;99.90;;;;;;5075779;28;20024;-86
2021/12/11 13:27:53;;;;;;;;;;;5.40;99.90;;;;;;5080037;28;20032;-79